Time;durP1;ratioP1;P1;durP2;ratioP2;P2;SDS_P1;SDS_P2;PMS_P1;PMS_P2;Temp;Humidity;BMP_temperature;BMP_pressure;BME280_temperature;BME280_humidity;BME280_pressure;Samples;Min_cycle;Max_cycle;Signal;HPM_P1;HPM_P2
2024/03/26 00:01:06;;;;;;;0.00;0.00;;;;;;;9.50;84.13;97853.72;5016890;28;20025;-78
2024/03/26 00:03:32;;;;;;;0.00;0.00;;;;;;;9.48;84.50;97853.25;5028116;28;20052;-79
2024/03/26 00:06:05;;;;;;;0.00;0.00;;;;;;;9.49;84.44;97859.50;5052196;28;20070;-79
2024/03/26 00:08:31;;;;;;;0.00;0.00;;;;;;;9.36;84.11;97837.53;5066670;28;20179;-80
2024/03/26 00:10:59;;;;;;;0.00;0.00;;;;;;;9.44;84.56;97855.81;5036681;28;20024;-78
2024/03/26 00:13:24;;;;;;;0.00;0.00;;;;;;;9.48;84.23;97861.44;5024941;28;20586;-78
2024/03/26 00:15:52;;;;;;;0.00;0.00;;;;;;;9.40;84.70;97845.88;5027191;28;20128;-78
2024/03/26 00:18:18;;;;;;;0.00;0.00;;;;;;;9.33;84.46;97840.91;5014568;28;20503;-78
2024/03/26 00:20:43;;;;;;;0.00;0.00;;;;;;;9.21;84.75;97814.28;5011916;28;20037;-77
2024/03/26 00:23:12;;;;;;;0.00;0.00;;;;;;;9.40;84.01;97843.13;5008835;28;20475;-78
2024/03/26 00:25:37;;;;;;;0.00;0.00;;;;;;;9.36;84.44;97842.16;5017946;28;20026;-78
2024/03/26 00:28:10;;;;;;;0.00;0.00;;;;;;;9.33;83.71;97842.81;5001488;28;20028;-78
2024/03/26 00:30:38;;;;;;;0.00;0.00;;;;;;;9.17;83.95;97817.94;5010575;28;20111;-79
2024/03/26 00:33:06;;;;;;;0.00;0.00;;;;;;;9.33;83.72;97837.38;5017338;28;20128;-78
2024/03/26 00:35:36;;;;;;;0.00;0.00;;;;;;;9.23;83.80;97816.69;5007435;28;20032;-78
2024/03/26 00:38:04;;;;;;;0.00;0.00;;;;;;;9.34;84.25;97834.31;5028078;28;20104;-78
2024/03/26 00:40:30;;;;;;;0.10;0.10;;;;;;;9.23;84.19;97817.47;5012054;28;20422;-78
2024/03/26 00:42:55;;;;;;;0.00;0.00;;;;;;;9.17;83.38;97812.50;5030431;28;20036;-77
2024/03/26 00:45:30;;;;;;;0.00;0.00;;;;;;;9.14;83.83;97800.31;5012920;28;20411;-78
2024/03/26 00:47:58;;;;;;;0.00;0.00;;;;;;;9.31;84.47;97823.25;5026023;28;20052;-78
2024/03/26 00:50:24;;;;;;;0.00;0.00;;;;;;;9.14;84.43;97781.25;5035366;28;20033;-78
2024/03/26 00:52:49;;;;;;;0.10;0.10;;;;;;;9.29;84.78;97803.66;5027358;28;20758;-77
2024/03/26 00:55:15;;;;;;;0.00;0.00;;;;;;;9.18;84.24;97784.91;5029567;28;20061;-78
2024/03/26 00:57:40;;;;;;;0.10;0.10;;;;;;;9.23;83.96;97803.06;5025164;28;20108;-78
2024/03/26 01:00:10;;;;;;;0.00;0.00;;;;;;;9.05;83.68;97772.25;5067590;28;20434;-78
2024/03/26 01:02:38;;;;;;;0.00;0.00;;;;;;;9.08;84.54;97771.59;5043239;28;20061;-77
2024/03/26 01:05:05;;;;;;;0.00;0.00;;;;;;;9.22;84.86;97796.78;5031423;28;20021;-77
2024/03/26 01:07:33;;;;;;;0.05;0.05;;;;;;;9.11;84.84;97759.25;5011172;28;20061;-76
2024/03/26 01:09:59;;;;;;;0.00;0.00;;;;;;;9.16;85.07;97768.06;5006911;28;20393;-77
2024/03/26 01:12:25;;;;;;;0.00;0.00;;;;;;;9.09;84.73;97757.66;5069768;28;20083;-77
2024/03/26 01:14:50;;;;;;;0.00;0.00;;;;;;;9.18;85.73;97765.81;5010464;28;20029;-77
2024/03/26 01:17:18;;;;;;;0.00;0.00;;;;;;;9.15;86.10;97750.09;5034176;28;20044;-79
2024/03/26 01:19:46;;;;;;;0.00;0.00;;;;;;;9.01;85.51;97741.28;5032299;28;20048;-77
2024/03/26 01:22:14;;;;;;;0.00;0.00;;;;;;;8.94;84.79;97755.41;5007308;28;20056;-79
2024/03/26 01:24:43;;;;;;;0.00;0.00;;;;;;;9.05;85.15;97783.16;5022997;28;20029;-78
2024/03/26 01:27:08;;;;;;;0.00;0.00;;;;;;;8.97;85.27;97782.03;5025026;28;20087;-80
2024/03/26 01:29:36;;;;;;;0.00;0.00;;;;;;;8.73;84.58;97755.22;5026873;28;20033;-77
2024/03/26 01:32:02;;;;;;;0.00;0.00;;;;;;;8.75;85.30;97758.44;5041232;28;20376;-77
2024/03/26 01:34:30;;;;;;;0.00;0.00;;;;;;;8.82;85.15;97764.22;5008892;28;20032;-78
2024/03/26 01:36:58;;;;;;;0.00;0.00;;;;;;;8.96;85.21;97785.88;5019519;28;20022;-79
2024/03/26 01:39:24;;;;;;;0.00;0.00;;;;;;;8.88;84.85;97776.56;5048895;28;20031;-79
2024/03/26 01:41:51;;;;;;;0.00;0.00;;;;;;;8.71;84.96;97757.47;5006973;28;20018;-79
2024/03/26 01:44:17;;;;;;;0.03;0.03;;;;;;;8.74;85.33;97754.13;5013122;28;20025;-78
2024/03/26 01:46:45;;;;;;;0.00;0.00;;;;;;;8.80;85.64;97750.09;5034861;28;20036;-79
2024/03/26 01:49:12;;;;;;;0.00;0.00;;;;;;;8.91;84.81;97772.41;4997846;28;20025;-80
2024/03/26 01:52:05;;;;;;;0.00;0.00;;;;;;;8.74;84.62;97743.22;5025688;28;20030;-79
2024/03/26 01:54:43;;;;;;;;;;;;;;;;;;;;;
2024/03/26 01:57:23;;;;;;;;;;;;;;;;;;;;;
2024/03/26 02:00:09;;;;;;;0.00;0.00;;;;;;;8.81;85.58;97742.75;5028427;28;20527;-81
2024/03/26 02:02:38;;;;;;;0.00;0.00;;;;;;;8.81;85.45;97746.28;5024823;28;20050;-77
2024/03/26 02:05:06;;;;;;;0.00;0.00;;;;;;;8.76;85.27;97738.28;5008255;28;20118;-77
2024/03/26 02:07:45;;;;;;;;;;;;;;;;;;;;;
2024/03/26 02:10:14;;;;;;;0.00;0.00;;;;;;;8.61;85.11;97720.44;5033884;28;20025;-77
2024/03/26 02:12:40;;;;;;;0.00;0.00;;;;;;;8.86;85.07;97748.03;5046392;28;20025;-78
2024/03/26 02:15:06;;;;;;;0.00;0.00;;;;;;;8.81;84.96;97746.28;5007585;28;20480;-79
2024/03/26 02:17:34;;;;;;;0.00;0.00;;;;;;;8.67;85.16;97718.38;5040251;28;20037;-78
2024/03/26 02:20:10;;;;;;;;;;;;;;;;;;;;;
2024/03/26 02:22:35;;;;;;;0.00;0.00;;;;;;;8.85;85.80;97741.78;5034361;28;20022;-80
2024/03/26 02:25:01;;;;;;;0.00;0.00;;;;;;;8.87;86.15;97739.53;5008289;28;20025;-79
2024/03/26 02:27:26;;;;;;;0.00;0.00;;;;;;;8.90;85.72;97744.34;5025348;28;20053;-77
2024/03/26 02:29:52;;;;;;;0.00;0.00;;;;;;;8.83;85.72;97740.50;5048786;28;20030;-78
2024/03/26 02:32:17;;;;;;;0.00;0.00;;;;;;;8.81;85.88;97729.13;5029183;28;20035;-78
2024/03/26 02:34:42;;;;;;;0.00;0.00;;;;;;;8.64;85.82;97711.63;4989685;28;20038;-78
2024/03/26 02:37:22;;;;;;;0.00;0.00;;;;;;;8.66;85.30;97717.56;5033513;28;20040;-78
2024/03/26 02:39:49;;;;;;;0.00;0.00;;;;;;;8.58;85.46;97703.94;5048797;28;20029;-79
2024/03/26 02:42:17;;;;;;;0.00;0.00;;;;;;;8.58;85.44;97703.94;5016626;28;20030;-77
2024/03/26 02:44:43;;;;;;;0.00;0.00;;;;;;;8.72;85.30;97731.84;5004078;28;20475;-79
2024/03/26 02:47:08;;;;;;;0.00;0.00;;;;;;;8.70;85.19;97728.63;5032717;28;20043;-78
2024/03/26 02:49:33;;;;;;;0.00;0.00;;;;;;;8.70;85.41;97734.91;5023965;28;20029;-78
2024/03/26 02:51:59;;;;;;;0.00;0.00;;;;;;;8.68;85.24;97725.44;4986505;28;20464;-79
2024/03/26 02:54:24;;;;;;;0.00;0.00;;;;;;;8.68;85.57;97730.88;5029026;28;20071;-79
2024/03/26 02:56:50;;;;;;;0.00;0.00;;;;;;;8.71;85.36;97724.78;5019612;28;20125;-79
2024/03/26 02:59:15;;;;;;;0.00;0.00;;;;;;;8.67;84.51;97729.25;4993691;28;20109;-78
2024/03/26 03:01:41;;;;;;;0.00;0.00;;;;;;;8.65;85.17;97732.31;5026670;28;20048;-77
2024/03/26 03:04:06;;;;;;;0.00;0.00;;;;;;;8.67;85.10;97729.25;5031994;28;20056;-77
2024/03/26 03:06:32;;;;;;;0.00;0.00;;;;;;;8.70;85.13;97728.63;5030120;28;20436;-78
2024/03/26 03:08:57;;;;;;;0.00;0.00;;;;;;;8.67;85.21;97723.81;5002501;28;20033;-78
2024/03/26 03:11:23;;;;;;;0.00;0.00;;;;;;;8.68;85.28;97720.78;5002879;28;20037;-78
2024/03/26 03:13:48;;;;;;;0.00;0.00;;;;;;;8.71;85.15;97716.63;5029539;28;20060;-79
2024/03/26 03:16:21;;;;;;;0.00;0.00;;;;;;;8.67;85.73;97702.84;5007903;28;20025;-78
2024/03/26 03:18:46;;;;;;;0.00;0.00;;;;;;;8.69;85.88;97705.25;5014470;28;20091;-80
2024/03/26 03:21:12;;;;;;;0.00;0.00;;;;;;;8.60;85.93;97688.06;5020333;28;20690;-78
2024/03/26 03:23:37;;;;;;;0.00;0.00;;;;;;;8.70;85.87;97701.38;5032430;28;20021;-77
2024/03/26 03:26:05;;;;;;;0.00;0.00;;;;;;;8.70;86.07;97695.94;5035960;28;20499;-78
2024/03/26 03:28:31;;;;;;;0.00;0.00;;;;;;;8.66;85.53;97694.97;5008152;28;20036;-78
2024/03/26 03:30:56;;;;;;;0.00;0.00;;;;;;;8.64;85.92;97683.59;5016276;28;20033;-78
2024/03/26 03:33:39;;;;;;;0.00;0.00;;;;;;;8.56;85.74;97675.09;5024470;28;20531;-77
2024/03/26 03:36:05;;;;;;;0.00;0.00;;;;;;;8.67;85.77;97696.56;5038917;28;20112;-77
2024/03/26 03:38:30;;;;;;;0.00;0.00;;;;;;;8.64;86.08;97680.88;5027328;28;20211;-77
2024/03/26 03:40:55;;;;;;;0.00;0.00;;;;;;;8.49;86.00;97663.09;5028756;28;20025;-78
2024/03/26 03:43:21;;;;;;;0.00;0.00;;;;;;;8.55;85.92;97676.22;5010934;28;20387;-79
2024/03/26 03:45:54;;;;;;;0.00;0.00;;;;;;;8.48;86.21;97665.00;5028414;28;20030;-79
2024/03/26 03:48:19;;;;;;;0.00;0.00;;;;;;;8.51;86.82;97678.00;5023936;28;20047;-77
2024/03/26 03:50:44;;;;;;;0.00;0.00;;;;;;;8.51;86.66;97683.44;5045390;28;20049;-77
2024/03/26 03:53:10;;;;;;;0.00;0.00;;;;;;;8.42;86.45;97662.72;5020032;28;20470;-79
2024/03/26 03:55:35;;;;;;;0.00;0.00;;;;;;;8.45;86.81;97657.47;5003357;28;20084;-79
2024/03/26 03:58:01;;;;;;;0.00;0.00;;;;;;;8.40;86.92;97654.88;5028454;28;20042;-78
2024/03/26 04:00:26;;;;;;;0.00;0.00;;;;;;;8.32;87.34;97651.03;5021477;28;20060;-78
2024/03/26 04:02:52;;;;;;;0.00;0.00;;;;;;;8.31;87.46;97662.22;5012916;28;20537;-78
2024/03/26 04:05:17;;;;;;;0.00;0.00;;;;;;;8.26;87.88;97665.13;5009502;28;20029;-77
2024/03/26 04:07:43;;;;;;;0.00;0.00;;;;;;;8.16;87.61;97655.31;5009957;28;20029;-78
2024/03/26 04:10:16;;;;;;;0.00;0.00;;;;;;;8.12;88.29;97654.34;4991185;28;20040;-79
2024/03/26 04:12:42;;;;;;;0.00;0.00;;;;;;;8.07;87.96;97658.03;5030342;28;20466;-78
2024/03/26 04:15:09;;;;;;;0.00;0.00;;;;;;;8.09;88.51;97660.44;5006431;28;20041;-78
2024/03/26 04:17:34;;;;;;;0.00;0.00;;;;;;;7.81;88.57;97623.41;5023232;28;20032;-77
2024/03/26 04:20:00;;;;;;;0.00;0.00;;;;;;;8.04;88.58;97664.09;5031878;28;20021;-79
2024/03/26 04:22:25;;;;;;;0.00;0.00;;;;;;;7.97;88.71;97650.16;5000219;28;20388;-78
2024/03/26 04:24:51;;;;;;;0.00;0.00;;;;;;;8.00;88.70;97663.94;5026064;28;20129;-78
2024/03/26 04:27:16;;;;;;;0.00;0.00;;;;;;;8.00;88.34;97657.69;4996135;28;20032;-77
2024/03/26 04:29:41;;;;;;;0.00;0.00;;;;;;;8.04;88.48;97669.53;5024639;28;20572;-77
2024/03/26 04:32:07;;;;;;;0.00;0.00;;;;;;;8.10;88.63;97668.28;5059423;28;20037;-77
2024/03/26 04:34:32;;;;;;;0.00;0.00;;;;;;;8.10;88.24;97668.28;4990469;28;20441;-77
2024/03/26 04:37:02;;;;;;;0.00;0.00;;;;;;;8.14;88.05;97674.69;4991460;28;20044;-78
2024/03/26 04:39:28;;;;;;;0.00;0.00;;;;;;;8.09;88.04;97658.53;5028501;28;20037;-78
2024/03/26 04:41:54;;;;;;;0.00;0.00;;;;;;;8.15;88.32;97664.63;5024635;28;20423;-78
2024/03/26 04:44:20;;;;;;;0.00;0.00;;;;;;;8.12;88.57;97663.34;5025355;28;21215;-77
2024/03/26 04:46:45;;;;;;;0.00;0.00;;;;;;;8.14;88.34;97663.00;5031750;28;20028;-77
2024/03/26 04:49:11;;;;;;;0.00;0.00;;;;;;;8.04;88.57;97647.78;5026878;28;20038;-77
2024/03/26 04:51:36;;;;;;;0.00;0.00;;;;;;;7.97;88.45;97653.69;5020639;28;20551;-77
2024/03/26 04:54:02;;;;;;;0.00;0.00;;;;;;;7.85;88.92;97643.41;5006979;28;20026;-78
2024/03/26 04:56:27;;;;;;;0.00;0.00;;;;;;;7.70;89.87;97643.84;5011738;28;20112;-78
2024/03/26 04:58:56;;;;;;;0.00;0.00;;;;;;;7.60;89.80;97652.28;4991947;28;20055;-78
2024/03/26 05:01:21;;;;;;;0.00;0.00;;;;;;;7.42;90.63;97646.78;5028559;28;20057;-77
2024/03/26 05:03:47;;;;;;;0.00;0.00;;;;;;;7.30;90.67;97652.81;5006208;28;20052;-78
2024/03/26 05:06:12;;;;;;;0.00;0.00;;;;;;;7.20;90.79;97649.53;5026706;28;20120;-79
2024/03/26 05:08:38;;;;;;;0.00;0.00;;;;;;;7.05;91.40;97645.31;5021974;28;20163;-78
2024/03/26 05:11:03;;;;;;;0.00;0.00;;;;;;;7.04;92.24;97649.13;5010863;28;20029;-78
2024/03/26 05:13:29;;;;;;;0.00;0.00;;;;;;;6.94;92.30;97644.78;5033282;28;20037;-77
2024/03/26 05:15:57;;;;;;;0.00;0.00;;;;;;;6.88;92.71;97645.97;5025721;28;20036;-78
2024/03/26 05:18:23;;;;;;;0.00;0.00;;;;;;;6.91;92.90;97656.25;5052136;28;20037;-80
2024/03/26 05:20:48;;;;;;;0.00;0.00;;;;;;;6.87;92.98;97649.84;5025673;28;20025;-78
2024/03/26 05:23:13;;;;;;;0.00;0.00;;;;;;;6.81;93.06;97646.44;5058885;28;20029;-78
2024/03/26 05:25:39;;;;;;;0.00;0.00;;;;;;;6.77;93.36;97648.94;5008660;28;20471;-77
2024/03/26 05:28:05;;;;;;;0.00;0.00;;;;;;;6.75;93.74;97650.41;5019128;28;20132;-79
2024/03/26 05:30:32;;;;;;;0.00;0.00;;;;;;;6.75;93.49;97653.91;5022998;28;20026;-79
2024/03/26 05:33:00;;;;;;;0.00;0.00;;;;;;;6.70;94.02;97635.03;5018775;28;20467;-79
2024/03/26 05:35:25;;;;;;;0.00;0.00;;;;;;;6.71;94.46;97647.47;5026911;28;20356;-78
2024/03/26 05:38:00;;;;;;;0.00;0.00;;;;;;;6.60;94.18;97632.53;5007644;28;20036;-78
2024/03/26 05:40:28;;;;;;;0.00;0.00;;;;;;;6.61;94.38;97636.84;5012053;28;20036;-78
2024/03/26 05:42:53;;;;;;;0.00;0.00;;;;;;;6.67;94.71;97651.13;5008208;28;20060;-78
2024/03/26 05:45:19;;;;;;;0.00;0.00;;;;;;;6.61;94.72;97642.28;5025482;28;20167;-78
2024/03/26 05:47:44;;;;;;;0.00;0.00;;;;;;;6.64;94.91;97652.53;4992189;28;20082;-78
2024/03/26 05:50:09;;;;;;;0.00;0.00;;;;;;;6.67;95.19;97662.78;5008820;28;20040;-78
2024/03/26 05:52:35;;;;;;;0.00;0.00;;;;;;;6.64;95.22;97657.97;5008180;28;20232;-79
2024/03/26 05:55:00;;;;;;;0.00;0.00;;;;;;;6.62;94.88;97649.34;5040482;28;20049;-78
2024/03/26 05:57:26;;;;;;;0.00;0.00;;;;;;;6.64;95.29;97647.09;5009951;28;20388;-77
2024/03/26 05:59:51;;;;;;;0.00;0.00;;;;;;;6.67;95.26;97641.06;5007375;28;20033;-79
2024/03/26 06:02:19;;;;;;;0.00;0.00;;;;;;;6.69;94.97;97638.84;5006741;28;20112;-77
2024/03/26 06:04:45;;;;;;;0.00;0.00;;;;;;;6.73;95.32;97628.16;5010144;28;20487;-78
2024/03/26 06:07:11;;;;;;;0.00;0.00;;;;;;;6.84;95.44;97639.59;5011795;28;20060;-77
2024/03/26 06:09:36;;;;;;;0.00;0.00;;;;;;;6.85;95.30;97635.75;5026244;28;20061;-77
2024/03/26 06:12:10;;;;;;;0.00;0.00;;;;;;;6.88;95.24;97629.69;5024757;28;20033;-78
2024/03/26 06:14:38;;;;;;;0.10;0.10;;;;;;;6.91;95.44;97637.25;5033416;28;20041;-76
2024/03/26 06:17:03;;;;;;;0.00;0.00;;;;;;;6.91;95.48;97640.75;5025806;28;20022;-78
2024/03/26 06:19:31;;;;;;;0.00;0.00;;;;;;;6.82;95.57;97618.97;5010000;28;20048;-78
2024/03/26 06:21:56;;;;;;;0.00;0.00;;;;;;;6.86;95.84;97621.06;5022086;28;20438;-77
2024/03/26 06:24:22;;;;;;;0.10;0.10;;;;;;;7.05;95.60;97640.66;5024222;28;20022;-78
2024/03/26 06:26:47;;;;;;;0.00;0.00;;;;;;;7.06;95.90;97641.47;5012944;28;20055;-78
2024/03/26 06:29:12;;;;;;;0.00;0.00;;;;;;;7.11;94.67;97636.72;5026521;28;20686;-79
2024/03/26 06:31:38;;;;;;;0.10;0.10;;;;;;;7.30;95.60;97646.56;4989037;28;20052;-78
2024/03/26 06:34:03;;;;;;;0.08;0.08;;;;;;;7.23;94.79;97614.41;5019244;28;20167;-77
2024/03/26 06:36:29;;;;;;;0.00;0.00;;;;;;;7.55;94.29;97633.38;5023985;28;20033;-79
2024/03/26 06:38:54;;;;;;;0.00;0.00;;;;;;;7.65;93.91;97630.38;5020778;28;20534;-77
2024/03/26 06:41:20;;;;;;;0.00;0.00;;;;;;;7.74;93.34;97623.06;5024121;28;20032;-78
2024/03/26 06:43:45;;;;;;;0.00;0.00;;;;;;;7.80;93.03;97621.78;5052997;28;20455;-77
2024/03/26 06:46:13;;;;;;;0.00;0.00;;;;;;;7.90;92.70;97628.06;5014796;28;20041;-79
2024/03/26 06:48:38;;;;;;;0.00;0.00;;;;;;;8.03;92.51;97632.56;5025738;28;20112;-79
2024/03/26 06:51:04;;;;;;;0.00;0.00;;;;;;;8.09;92.14;97630.50;5024390;28;20025;-79
2024/03/26 06:53:29;;;;;;;0.00;0.00;;;;;;;8.17;91.93;97635.94;5023028;28;20091;-78
2024/03/26 06:55:55;;;;;;;0.10;0.10;;;;;;;8.16;91.74;97628.09;5009329;28;20083;-78
2024/03/26 06:58:25;;;;;;;0.00;0.00;;;;;;;8.27;92.04;97631.34;5006542;28;20621;-78
2024/03/26 07:00:53;;;;;;;0.00;0.00;;;;;;;8.33;91.51;97627.31;5024326;28;20032;-79
2024/03/26 07:03:19;;;;;;;0.00;0.00;;;;;;;8.36;91.87;97615.78;5012624;28;20063;-76
2024/03/26 07:05:44;;;;;;;0.00;0.00;;;;;;;8.44;91.67;97622.34;5021397;28;20060;-78
2024/03/26 07:08:10;;;;;;;0.00;0.00;;;;;;;8.49;90.88;97620.31;4992997;28;20031;-77
2024/03/26 07:10:35;;;;;;;0.00;0.00;;;;;;;8.43;91.10;97602.50;5003639;28;20037;-79
2024/03/26 07:13:02;;;;;;;0.00;0.00;;;;;;;8.53;91.08;97610.38;5030654;28;20024;-78
2024/03/26 07:15:28;;;;;;;0.00;0.00;;;;;;;8.70;90.57;97608.75;5006083;28;20033;-76
2024/03/26 07:17:56;;;;;;;0.00;0.00;;;;;;;8.75;90.34;97600.44;5012809;28;20029;-77
2024/03/26 07:20:26;;;;;;;0.00;0.00;;;;;;;9.02;89.76;97625.69;5003853;28;20034;-73
2024/03/26 07:22:51;;;;;;;0.00;0.00;;;;;;;9.16;89.57;97620.84;5022664;28;20562;-75
2024/03/26 07:25:17;;;;;;;0.00;0.00;;;;;;;9.30;89.04;97614.38;5007794;28;20033;-76
2024/03/26 07:27:42;;;;;;;0.00;0.00;;;;;;;9.46;89.09;97620.09;5033309;28;20033;-73
2024/03/26 07:30:08;;;;;;;0.00;0.00;;;;;;;9.61;88.34;97609.44;5021898;28;20096;-75
2024/03/26 07:32:33;;;;;;;0.00;0.00;;;;;;;9.83;87.94;97604.84;5005853;28;20044;-74
2024/03/26 07:34:59;;;;;;;0.00;0.00;;;;;;;10.04;87.13;97609.53;5004489;28;20041;-75
2024/03/26 07:37:24;;;;;;;0.00;0.00;;;;;;;10.17;86.49;97603.03;5005460;28;20156;-74
2024/03/26 07:39:50;;;;;;;0.00;0.00;;;;;;;10.56;85.33;97625.56;5020514;28;20037;-74
2024/03/26 07:42:26;;;;;;;0.00;0.00;;;;;;;10.66;84.91;97599.78;5031211;28;20367;-74
2024/03/26 07:45:20;;;;;;;0.00;0.00;;;;;;;10.90;84.03;97617.41;5017206;28;20024;-73
2024/03/26 07:47:48;;;;;;;0.00;0.00;;;;;;;11.13;82.83;97626.03;5024413;28;20041;-75
2024/03/26 07:50:17;;;;;;;0.00;0.00;;;;;;;11.28;82.18;97628.09;5022840;28;20033;-74
2024/03/26 07:52:43;;;;;;;0.00;0.00;;;;;;;11.28;81.49;97599.94;5021234;28;20033;-74
2024/03/26 07:55:23;;;;;;;0.00;0.00;;;;;;;11.57;81.01;97614.56;5023871;28;20055;-76
2024/03/26 07:58:16;;;;;;;0.00;0.00;;;;;;;11.93;79.66;97624.75;5025296;28;20052;-75
2024/03/26 08:00:44;;;;;;;0.00;0.00;;;;;;;12.22;79.03;97625.63;5021444;28;20026;-74
2024/03/26 08:03:10;;;;;;;0.00;0.00;;;;;;;12.42;77.88;97631.31;5022817;28;20040;-75
2024/03/26 08:05:35;;;;;;;0.00;0.00;;;;;;;12.49;77.41;97639.75;5025772;28;20029;-74
2024/03/26 08:08:00;;;;;;;0.00;0.00;;;;;;;12.49;77.08;97628.78;5011879;28;20033;-75
2024/03/26 08:10:26;;;;;;;0.00;0.00;;;;;;;12.47;76.42;97617.34;5006127;28;20471;-75
2024/03/26 08:12:51;;;;;;;0.10;0.10;;;;;;;12.54;76.78;97603.84;5033339;28;20120;-75
2024/03/26 08:15:20;;;;;;;0.00;0.00;;;;;;;12.81;76.50;97613.25;5009254;28;20694;-74
2024/03/26 08:17:45;;;;;;;0.10;0.10;;;;;;;13.02;75.36;97613.00;5026940;28;20109;-75
2024/03/26 08:20:11;;;;;;;0.00;0.00;;;;;;;13.04;74.70;97582.47;5010392;28;20113;-75
2024/03/26 08:22:39;;;;;;;0.00;0.00;;;;;;;13.40;73.98;97628.16;5025912;28;20442;-74
2024/03/26 08:25:05;;;;;;;0.00;0.00;;;;;;;13.50;73.10;97615.84;5026749;28;20024;-76
2024/03/26 08:27:31;;;;;;;0.00;0.00;;;;;;;13.67;72.02;97609.22;5027869;28;20100;-76
2024/03/26 08:29:59;;;;;;;0.00;0.00;;;;;;;13.96;71.54;97601.66;5008305;28;20049;-74
2024/03/26 08:32:24;;;;;;;0.00;0.00;;;;;;;14.34;70.75;97608.38;5025139;28;20063;-75
2024/03/26 08:34:50;;;;;;;0.00;0.00;;;;;;;14.95;69.63;97614.34;5019960;28;20036;-75
2024/03/26 08:37:15;;;;;;;0.00;0.00;;;;;;;15.59;67.83;97600.13;5009636;28;20030;-75
2024/03/26 08:39:41;;;;;;;0.00;0.00;;;;;;;16.48;65.82;97602.66;4989580;28;20029;-74
2024/03/26 08:42:06;;;;;;;0.00;0.00;;;;;;;17.28;61.65;97608.72;5026940;28;20030;-76
2024/03/26 08:44:32;;;;;;;0.00;0.00;;;;;;;18.22;59.32;97605.94;5027648;28;20056;-74
2024/03/26 08:46:57;;;;;;;0.00;0.00;;;;;;;19.11;55.51;97604.78;5009921;28;20098;-74
2024/03/26 08:49:23;;;;;;;0.00;0.00;;;;;;;19.62;53.36;97609.19;5010545;28;20041;-74
2024/03/26 08:51:48;;;;;;;0.00;0.00;;;;;;;19.59;52.01;97589.81;5021683;28;20475;-76
2024/03/26 08:54:16;;;;;;;0.00;0.00;;;;;;;19.71;51.52;97598.53;5030088;28;20073;-75
2024/03/26 08:56:41;;;;;;;0.00;0.00;;;;;;;20.03;51.50;97592.19;5040725;28;20401;-76
2024/03/26 08:59:07;;;;;;;0.00;0.00;;;;;;;21.62;48.61;97608.22;5042622;28;20116;-75
2024/03/26 09:01:32;;;;;;;0.00;0.00;;;;;;;22.36;45.81;97596.84;5026891;28;20021;-75
2024/03/26 09:03:58;;;;;;;0.00;0.00;;;;;;;22.64;43.57;97597.72;5024226;28;20408;-76
2024/03/26 09:06:24;;;;;;;0.00;0.00;;;;;;;22.37;43.54;97600.41;5026225;28;20025;-75
2024/03/26 09:08:49;;;;;;;0.00;0.00;;;;;;;21.90;44.44;97600.81;5004475;28;20726;-76
2024/03/26 09:11:15;;;;;;;0.00;0.00;;;;;;;21.60;44.83;97602.28;5059792;28;20049;-75
2024/03/26 09:13:41;;;;;;;0.00;0.00;;;;;;;21.67;45.02;97588.31;5025554;28;20021;-75
2024/03/26 09:16:07;;;;;;;0.00;0.00;;;;;;;21.72;44.79;97578.75;5005000;28;20029;-74
2024/03/26 09:18:33;;;;;;;0.00;0.00;;;;;;;21.81;43.83;97586.63;5041655;28;20037;-75
2024/03/26 09:20:59;;;;;;;0.00;0.00;;;;;;;22.72;42.08;97582.50;5036888;28;20526;-76
2024/03/26 09:23:24;;;;;;;0.00;0.00;;;;;;;24.32;40.60;97578.88;5026920;28;20116;-77
2024/03/26 09:25:50;;;;;;;0.00;0.00;;;;;;;27.28;35.89;97578.84;5010466;28;20075;-76
2024/03/26 09:28:15;;;;;;;0.00;0.00;;;;;;;28.85;33.81;97584.44;5016234;28;20033;-76
2024/03/26 09:30:41;;;;;;;0.00;0.00;;;;;;;29.00;32.17;97574.22;5045106;28;20061;-76
2024/03/26 09:33:11;;;;;;;0.00;0.00;;;;;;;27.44;33.00;97574.41;5023395;28;20144;-76
2024/03/26 09:35:37;;;;;;;0.00;0.00;;;;;;;25.87;34.10;97584.72;5019255;28;20442;-75
2024/03/26 09:38:02;;;;;;;0.00;0.00;;;;;;;25.19;34.42;97581.50;4983883;28;20026;-75
2024/03/26 09:40:27;;;;;;;0.00;0.00;;;;;;;24.15;35.28;97567.63;5007680;28;20037;-75
2024/03/26 09:42:56;;;;;;;0.00;0.00;;;;;;;23.08;35.96;97570.09;4993287;28;20071;-74
2024/03/26 09:45:23;;;;;;;0.00;0.00;;;;;;;21.72;39.19;97573.97;5023279;28;20552;-76
2024/03/26 09:47:50;;;;;;;0.00;0.00;;;;;;;21.50;40.42;97572.53;5066528;28;20036;-75
2024/03/26 09:50:18;;;;;;;0.00;0.00;;;;;;;21.26;39.56;97573.09;5048336;28;20495;-77
2024/03/26 09:52:47;;;;;;;0.00;0.00;;;;;;;21.90;40.51;97573.00;5002226;28;20087;-76
2024/03/26 09:55:13;;;;;;;0.00;0.00;;;;;;;22.82;39.19;97564.06;5028328;28;20658;-75
2024/03/26 09:57:38;;;;;;;0.00;0.00;;;;;;;24.22;37.52;97556.34;5025679;28;20036;-74
2024/03/26 10:00:04;;;;;;;0.00;0.00;;;;;;;25.57;34.18;97566.28;5008824;28;20502;-73
2024/03/26 10:02:30;;;;;;;0.00;0.00;;;;;;;25.62;33.51;97574.16;5032298;28;20068;-75
2024/03/26 10:04:56;;;;;;;0.00;0.00;;;;;;;25.05;34.10;97570.66;5008189;28;20064;-74
2024/03/26 10:07:22;;;;;;;0.00;0.00;;;;;;;23.72;35.03;97573.16;5013675;28;20029;-75
2024/03/26 10:09:47;;;;;;;0.00;0.00;;;;;;;22.20;37.25;97552.06;5025137;28;20061;-74
2024/03/26 10:12:13;;;;;;;0.00;0.00;;;;;;;21.97;38.36;97556.25;5022556;28;20773;-74
2024/03/26 10:14:40;;;;;;;0.00;0.00;;;;;;;21.91;38.97;97546.78;5020093;28;20021;-74
2024/03/26 10:17:06;;;;;;;0.00;0.00;;;;;;;21.55;38.87;97547.09;5031727;28;20493;-73
2024/03/26 10:19:32;;;;;;;0.00;0.00;;;;;;;21.89;39.64;97543.59;5022482;28;20034;-75
2024/03/26 10:21:57;;;;;;;0.00;0.00;;;;;;;23.05;38.58;97535.50;5010761;28;20049;-75
2024/03/26 10:24:24;;;;;;;0.00;0.00;;;;;;;24.86;36.34;97542.28;5005105;28;20483;-74
2024/03/26 10:26:51;;;;;;;0.00;0.00;;;;;;;24.90;33.94;97543.00;5031570;28;20116;-75
2024/03/26 10:29:17;;;;;;;0.00;0.00;;;;;;;24.54;34.62;97540.94;5026454;28;20053;-73
2024/03/26 10:31:44;;;;;;;0.00;0.00;;;;;;;24.71;34.50;97535.44;5016424;28;20084;-73
2024/03/26 10:34:10;;;;;;;0.00;0.00;;;;;;;24.97;34.99;97541.28;5027766;28;20021;-74
2024/03/26 10:36:37;;;;;;;0.00;0.00;;;;;;;25.85;34.58;97525.59;5032831;28;20103;-74
2024/03/26 10:39:03;;;;;;;0.00;0.00;;;;;;;27.21;31.88;97525.00;5035604;28;20040;-74
2024/03/26 10:41:35;;;;;;;0.00;0.00;;;;;;;26.12;30.66;97532.91;5021910;28;20041;-74
2024/03/26 10:44:01;;;;;;;0.00;0.00;;;;;;;24.97;32.46;97530.09;5010103;28;20022;-75
2024/03/26 10:46:30;;;;;;;0.00;0.00;;;;;;;25.68;32.73;97521.25;5020365;28;20056;-75
2024/03/26 10:48:57;;;;;;;0.00;0.00;;;;;;;25.64;31.46;97514.97;5054647;28;20045;-75
2024/03/26 10:51:25;;;;;;;0.00;0.00;;;;;;;25.49;32.13;97503.34;5030490;28;20124;-74
2024/03/26 10:53:55;;;;;;;0.00;0.00;;;;;;;25.39;31.59;97516.34;5005407;28;20022;-74
2024/03/26 10:56:21;;;;;;;0.00;0.00;;;;;;;23.53;32.92;97512.06;5025749;28;20141;-75
2024/03/26 10:58:46;;;;;;;0.00;0.00;;;;;;;21.75;36.20;97500.84;5008872;28;20112;-74
2024/03/26 11:01:13;;;;;;;0.00;0.00;;;;;;;20.55;37.94;97513.94;5014011;28;20090;-75
2024/03/26 11:03:46;;;;;;;0.00;0.00;;;;;;;20.43;39.14;97513.59;5007546;28;20037;-76
2024/03/26 11:06:11;;;;;;;0.00;0.00;;;;;;;20.87;38.99;97504.69;5021477;28;20022;-73
2024/03/26 11:08:40;;;;;;;0.00;0.00;;;;;;;21.22;38.70;97502.84;5031718;28;20060;-74
2024/03/26 11:11:09;;;;;;;0.00;0.00;;;;;;;20.68;38.84;97503.22;5000570;28;20033;-74
2024/03/26 11:13:38;;;;;;;0.00;0.00;;;;;;;19.31;40.37;97509.03;5028326;28;20025;-75
2024/03/26 11:16:05;;;;;;;0.00;0.00;;;;;;;18.32;42.29;97491.81;5039713;28;20032;-75
2024/03/26 11:18:35;;;;;;;0.00;0.00;;;;;;;17.44;44.33;97495.22;5033765;28;20025;-75
2024/03/26 11:21:09;;;;;;;0.00;0.00;;;;;;;16.83;45.65;97496.66;5002469;28;20025;-74
2024/03/26 11:23:42;;;;;;;0.00;0.00;;;;;;;16.41;46.88;97495.78;5042828;28;20022;-74
2024/03/26 11:26:07;;;;;;;0.00;0.00;;;;;;;15.92;49.19;97485.75;5024657;28;20025;-75
2024/03/26 11:28:33;;;;;;;0.00;0.00;;;;;;;15.31;49.63;97488.38;4994030;28;20029;-75
2024/03/26 11:30:59;;;;;;;0.00;0.00;;;;;;;14.98;51.86;97493.34;5031053;28;20538;-74
2024/03/26 11:33:26;;;;;;;0.00;0.00;;;;;;;14.62;52.76;97486.41;5023977;28;20067;-74
2024/03/26 11:35:52;;;;;;;0.00;0.00;;;;;;;14.42;53.45;97493.84;4989996;28;20025;-74
2024/03/26 11:38:18;;;;;;;0.00;0.00;;;;;;;14.12;55.02;97476.00;5027855;28;20383;-75
2024/03/26 11:40:46;;;;;;;0.00;0.00;;;;;;;13.94;56.12;97486.63;5044562;28;20033;-74
2024/03/26 11:43:11;;;;;;;0.00;0.00;;;;;;;13.85;57.60;97482.50;5030209;28;20021;-74